Time;durP1;ratioP1;P1;durP2;ratioP2;P2;SDS_P1;SDS_P2;PMS_P1;PMS_P2;Temp;Humidity;BMP_temperature;BMP_pressure;BME280_temperature;BME280_humidity;BME280_pressure;Samples;Min_cycle;Max_cycle;Signal;HPM_P1;HPM_P2
2022/10/11 00:01:14;;;;;;;5.57;5.43;;;;;;;-142.65;91.68;50174.75;5116765;28;20209;-67
2022/10/11 00:03:41;;;;;;;6.93;6.50;;;;;;;-142.65;91.73;50182.72;5116185;28;20228;-67
2022/10/11 00:06:08;;;;;;;5.17;5.07;;;;;;;-142.65;91.71;50176.75;5116160;28;20196;-67
2022/10/11 00:08:35;;;;;;;5.90;5.60;;;;;;;-142.65;92.01;50180.75;5116141;28;20670;-67
2022/10/11 00:11:04;;;;;;;4.83;4.63;;;;;;;-142.65;92.08;50180.75;5116594;28;20213;-68
2022/10/11 00:13:31;;;;;;;5.20;5.00;;;;;;;-142.65;92.13;50178.75;5116349;28;20550;-68
2022/10/11 00:15:57;;;;;;;4.70;4.60;;;;;;;-142.65;92.27;50174.75;5116052;28;20165;-67
2022/10/11 00:18:24;;;;;;;4.70;4.60;;;;;;;-142.65;92.41;50182.72;5115917;28;20192;-67
2022/10/11 00:21:03;;;;;;;4.30;4.20;;;;;;;-142.65;92.52;50178.75;5115801;28;20287;-68
2022/10/11 00:23:30;;;;;;;4.43;4.40;;;;;;;-142.65;92.65;50178.75;5115779;28;20203;-68
2022/10/11 00:25:58;;;;;;;4.70;4.70;;;;;;;-142.65;92.46;50178.75;5115331;28;20651;-68
2022/10/11 00:28:24;;;;;;;4.03;3.93;;;;;;;-142.65;92.52;50174.75;5116015;28;20546;-68
2022/10/11 00:30:51;;;;;;;4.00;3.93;;;;;;;-142.65;92.40;50180.75;5115653;28;20216;-68
2022/10/11 00:33:17;;;;;;;5.40;5.30;;;;;;;-142.65;92.29;50178.75;5115924;28;20263;-67
2022/10/11 00:35:43;;;;;;;5.80;5.30;;;;;;;-142.65;92.22;50180.75;5115941;28;20181;-67
2022/10/11 00:38:10;;;;;;;5.07;4.97;;;;;;;-142.65;92.16;50180.75;5115778;28;20193;-68
2022/10/11 00:40:37;;;;;;;5.47;5.27;;;;;;;-142.65;92.16;50176.75;5115426;28;20205;-68
2022/10/11 00:43:15;;;;;;;5.47;5.37;;;;;;;-142.65;92.15;50182.72;5115342;28;20223;-68
2022/10/11 00:45:58;;;;;;;5.30;5.20;;;;;;;-142.65;92.16;50170.78;5115713;28;20612;-68
2022/10/11 00:48:34;;;;;;;6.13;5.90;;;;;;;-142.65;92.23;50176.75;5115228;28;20189;-68
2022/10/11 00:51:22;;;;;;;5.47;5.27;;;;;;;-142.65;92.29;50176.75;5115709;28;20292;-66
2022/10/11 00:53:50;;;;;;;5.30;5.20;;;;;;;-142.65;92.31;50178.75;5115487;28;20165;-66
2022/10/11 00:56:25;;;;;;;5.60;5.30;;;;;;;-142.65;92.35;50178.75;5115214;28;20181;-66
2022/10/11 00:58:54;;;;;;;5.83;5.63;;;;;;;-142.65;92.29;50182.72;5115176;28;20181;-66
2022/10/11 01:01:21;;;;;;;4.70;4.60;;;;;;;-142.65;92.49;50174.75;5115068;28;20216;-67
2022/10/11 01:03:47;;;;;;;4.83;4.70;;;;;;;-142.65;92.63;50170.78;5115597;28;20262;-67
2022/10/11 01:06:14;;;;;;;5.23;4.93;;;;;;;-142.65;92.59;50178.75;5115027;28;20177;-66
2022/10/11 01:08:41;;;;;;;5.20;4.80;;;;;;;-142.65;92.54;50176.75;5114963;28;20195;-66
2022/10/11 01:11:12;;;;;;;5.83;5.40;;;;;;;-142.65;92.63;50174.75;5115376;28;20205;-67
2022/10/11 01:14:12;;;;;;;5.07;4.77;;;;;;;-142.65;92.59;50178.75;5114995;28;20185;-67
2022/10/11 01:16:48;;;;;;;4.60;4.40;;;;;;;-142.65;92.61;50174.75;5115375;28;20619;-67
2022/10/11 01:19:47;;;;;;;5.77;4.63;;;;;;;-142.65;92.67;50178.75;5115006;28;20184;-67
2022/10/11 01:22:47;;;;;;;5.77;5.50;;;;;;;-142.65;92.63;50176.75;5059251;28;20224;-66
2022/10/11 01:25:25;;;;;;;8.37;5.73;;;;;;;-142.65;92.70;50174.75;5115121;28;20189;-66
2022/10/11 01:28:35;;;;;;;6.03;5.63;;;;;;;-142.65;92.81;50180.75;5114876;28;20191;-66
2022/10/11 01:31:33;;;;;;;6.00;5.73;;;;;;;-142.65;93.05;50178.75;5114525;28;20205;-67
2022/10/11 01:34:36;;;;;;;5.70;5.50;;;;;;;-142.65;93.22;50174.75;5114770;28;20180;-67
2022/10/11 01:37:16;;;;;;;4.60;4.40;;;;;;;-142.65;93.10;50180.75;5113549;28;20203;-66
2022/10/11 01:40:12;;;;;;;9.80;6.53;;;;;;;-142.65;93.29;50168.78;5114552;28;20214;-67
2022/10/11 01:42:41;;;;;;;6.37;5.97;;;;;;;-142.65;93.45;50178.75;5110609;28;20204;-67
2022/10/11 01:45:16;;;;;;;5.90;5.70;;;;;;;-142.65;93.38;50174.75;5114201;28;20208;-66
2022/10/11 01:47:44;;;;;;;5.50;5.40;;;;;;;-142.65;93.51;50182.72;5114242;28;20180;-66
2022/10/11 01:50:35;;;;;;;6.17;5.60;;;;;;;-142.65;93.55;50172.78;5114094;28;20213;-67
2022/10/11 01:53:19;;;;;;;5.30;5.00;;;;;;;-142.65;93.31;50178.75;5114153;28;20176;-66
2022/10/11 01:56:06;;;;;;;5.27;5.07;;;;;;;-142.65;93.32;50170.78;5114511;28;20628;-66
2022/10/11 01:58:48;;;;;;;6.37;5.97;;;;;;;-142.65;93.45;50182.72;5114606;28;20256;-66
2022/10/11 02:01:34;;;;;;;8.73;6.47;;;;;;;-142.65;93.50;50170.78;5113920;28;20740;-66
2022/10/11 02:04:10;;;;;;;6.97;5.80;;;;;;;-142.65;93.52;50178.75;5114199;28;20253;-66
2022/10/11 02:07:01;;;;;;;5.80;5.40;;;;;;;-142.65;93.58;50178.75;5113990;28;20181;-66
2022/10/11 02:09:39;;;;;;;5.57;5.27;;;;;;;-142.65;93.57;50182.72;5114075;28;20178;-67
2022/10/11 02:12:09;;;;;;;5.67;5.57;;;;;;;-142.65;93.58;50178.75;5114456;28;20176;-66
2022/10/11 02:14:41;;;;;;;5.50;5.30;;;;;;;-142.65;93.58;50174.75;5114416;28;20185;-66
2022/10/11 02:17:13;;;;;;;5.13;4.87;;;;;;;-142.65;93.60;50178.75;5114084;28;20176;-66
2022/10/11 02:20:01;;;;;;;5.60;5.20;;;;;;;-142.65;93.46;50180.75;5113997;28;20678;-67
2022/10/11 02:22:33;;;;;;;5.20;5.00;;;;;;;-142.65;93.24;50178.75;5114311;28;20183;-66
2022/10/11 02:25:04;;;;;;;5.90;5.40;;;;;;;-142.65;93.13;50174.75;5114196;28;20215;-67
2022/10/11 02:27:34;;;;;;;6.63;6.20;;;;;;;-142.65;93.23;50180.75;5114220;28;20615;-67
2022/10/11 02:30:03;;;;;;;6.23;5.93;;;;;;;-142.65;93.16;50182.72;5113563;28;20215;-67
2022/10/11 02:32:31;;;;;;;5.87;5.57;;;;;;;-142.65;93.10;50184.72;5113605;28;20659;-67
2022/10/11 02:35:01;;;;;;;6.30;6.17;;;;;;;-142.65;93.08;50176.75;5113886;28;20185;-67
2022/10/11 02:37:42;;;;;;;6.37;5.87;;;;;;;-142.65;93.02;50180.75;5113541;28;20184;-67
2022/10/11 02:40:16;;;;;;;5.20;5.10;;;;;;;-142.65;92.70;50180.75;5113688;28;20208;-67
2022/10/11 02:42:52;;;;;;;5.00;4.60;;;;;;;-142.65;92.53;50180.75;5114097;28;20608;-67
2022/10/11 02:45:25;;;;;;;5.20;4.80;;;;;;;-142.65;92.40;50178.75;5113677;28;20203;-67
2022/10/11 02:47:52;;;;;;;4.50;4.43;;;;;;;-142.65;92.40;50176.75;5115312;28;20528;-67
2022/10/11 02:50:20;;;;;;;4.93;4.83;;;;;;;-142.65;92.46;50174.75;5117618;28;20220;-67
2022/10/11 02:52:47;;;;;;;4.93;4.83;;;;;;;-142.65;92.54;50178.75;5118177;28;20191;-67
2022/10/11 02:55:13;;;;;;;4.97;4.87;;;;;;;-142.65;92.51;50178.75;5118128;28;20180;-67
2022/10/11 02:57:39;;;;;;;4.90;4.80;;;;;;;-142.65;92.75;50180.75;5117503;28;20192;-67
2022/10/11 03:00:06;;;;;;;5.13;5.03;;;;;;;-142.65;92.76;50182.72;5117407;28;20204;-67
2022/10/11 03:02:33;;;;;;;6.23;5.87;;;;;;;-142.65;92.86;50170.78;5117427;28;20189;-67
2022/10/11 03:04:59;;;;;;;4.67;4.57;;;;;;;-142.65;92.85;50178.75;5117831;28;20218;-67
2022/10/11 03:07:26;;;;;;;5.73;5.63;;;;;;;-142.65;92.86;50178.75;5117328;28;20179;-67
2022/10/11 03:09:52;;;;;;;5.63;5.43;;;;;;;-142.65;92.91;50182.72;5117200;28;20231;-67
2022/10/11 03:12:18;;;;;;;6.97;5.17;;;;;;;-142.65;92.88;50182.72;5117524;28;20526;-67
2022/10/11 03:14:45;;;;;;;6.90;6.20;;;;;;;-142.65;92.72;50180.75;5117294;28;20215;-67
2022/10/11 03:17:11;;;;;;;6.47;5.83;;;;;;;-142.65;92.81;50180.75;5117416;28;20186;-67
2022/10/11 03:19:57;;;;;;;5.70;5.20;;;;;;;-142.65;92.82;50180.75;5117489;28;20207;-67
2022/10/11 03:22:24;;;;;;;7.23;6.73;;;;;;;-142.65;92.99;50180.75;5117291;28;20671;-67
2022/10/11 03:24:50;;;;;;;6.83;6.37;;;;;;;-142.65;93.10;50180.75;5117244;28;20212;-67
2022/10/11 03:27:16;;;;;;;6.40;5.60;;;;;;;-142.65;93.29;50168.78;5117212;28;20199;-67
2022/10/11 03:29:43;;;;;;;6.73;6.00;;;;;;;-142.65;93.33;50176.75;5116874;28;20226;-67
2022/10/11 03:32:09;;;;;;;7.90;6.10;;;;;;;-142.65;93.49;50182.72;5116804;28;20203;-67
2022/10/11 03:34:35;;;;;;;6.00;5.70;;;;;;;-142.65;93.48;50178.75;5117028;28;20184;-67
2022/10/11 03:37:02;;;;;;;7.23;6.73;;;;;;;-142.65;93.45;50182.72;5116752;28;20188;-67
2022/10/11 03:39:28;;;;;;;9.20;6.70;;;;;;;-142.65;93.61;50178.75;5116926;28;20665;-67
2022/10/11 03:41:54;;;;;;;7.20;6.70;;;;;;;-142.65;93.77;50182.72;5116694;28;20657;-67
2022/10/11 03:44:21;;;;;;;7.20;6.67;;;;;;;-142.65;93.60;50184.72;5116538;28;20705;-67
2022/10/11 03:46:47;;;;;;;8.63;7.93;;;;;;;-142.65;93.68;50180.75;5116840;28;20204;-67
2022/10/11 03:49:14;;;;;;;5.73;5.60;;;;;;;-142.65;93.67;50182.72;5116444;28;20198;-68
2022/10/11 03:51:40;;;;;;;6.70;6.20;;;;;;;-142.65;93.74;50180.75;5116454;28;20184;-67
2022/10/11 03:54:06;;;;;;;7.40;6.97;;;;;;;-142.65;93.85;50180.75;5116700;28;20207;-67
2022/10/11 03:56:32;;;;;;;6.80;6.30;;;;;;;-142.65;93.64;50178.75;5116680;28;20552;-67
2022/10/11 03:58:59;;;;;;;7.10;6.90;;;;;;;-142.65;93.68;50170.78;5115488;28;20677;-67
2022/10/11 04:01:25;;;;;;;6.47;6.27;;;;;;;-142.65;93.76;50184.72;5116338;28;20207;-67
2022/10/11 04:03:56;;;;;;;12.87;7.57;;;;;;;-142.65;93.58;50178.75;5116249;28;20195;-67
2022/10/11 04:06:22;;;;;;;8.07;6.90;;;;;;;-142.65;93.66;50172.78;5116785;28;20188;-67
2022/10/11 04:08:49;;;;;;;8.33;7.80;;;;;;;-142.65;93.61;50174.75;5116736;28;20543;-67
2022/10/11 04:11:15;;;;;;;8.23;7.40;;;;;;;-142.65;93.50;50182.72;5116067;28;20709;-67
2022/10/11 04:13:41;;;;;;;7.23;6.70;;;;;;;-142.65;93.56;50172.78;5116170;28;20206;-67
2022/10/11 04:16:08;;;;;;;13.50;7.63;;;;;;;-142.65;93.48;50182.72;5116360;28;20183;-67
2022/10/11 04:18:34;;;;;;;8.50;7.20;;;;;;;-142.65;93.39;50182.72;5116030;28;20680;-67
2022/10/11 04:21:01;;;;;;;9.00;6.40;;;;;;;-142.65;93.46;50178.75;5115850;28;20219;-67
2022/10/11 04:23:29;;;;;;;19.33;7.97;;;;;;;-142.65;93.40;50174.75;5115912;28;20184;-67
2022/10/11 04:25:55;;;;;;;20.80;7.77;;;;;;;-142.65;93.34;50170.78;5115723;28;20207;-67
2022/10/11 04:28:22;;;;;;;10.57;7.17;;;;;;;-142.65;93.35;50174.75;5116127;28;20181;-67
2022/10/11 04:30:50;;;;;;;9.17;7.93;;;;;;;-142.65;93.40;50178.75;5115959;28;20223;-67
2022/10/11 04:33:16;;;;;;;12.93;8.70;;;;;;;-142.65;93.00;50176.75;5115736;28;20189;-67
2022/10/11 04:35:43;;;;;;;8.27;7.27;;;;;;;-142.65;93.29;50180.75;5115867;28;20366;-67
2022/10/11 04:38:09;;;;;;;10.23;8.10;;;;;;;-142.65;93.16;50180.75;5115617;28;20192;-67
2022/10/11 04:40:35;;;;;;;7.60;6.90;;;;;;;-142.65;93.19;50178.75;5115447;28;20204;-67
2022/10/11 04:43:02;;;;;;;6.80;6.30;;;;;;;-142.65;93.08;50178.75;5115456;28;20256;-67
2022/10/11 04:45:28;;;;;;;7.20;6.73;;;;;;;-142.65;93.05;50180.75;5115336;28;20205;-67
2022/10/11 04:47:55;;;;;;;7.90;7.10;;;;;;;-142.65;92.81;50182.72;5115425;28;20201;-67
2022/10/11 04:50:21;;;;;;;16.47;7.77;;;;;;;-142.65;92.65;50180.75;5115308;28;20227;-67
2022/10/11 04:52:48;;;;;;;8.90;8.00;;;;;;;-142.65;92.58;50180.75;5115525;28;20551;-67
2022/10/11 04:55:14;;;;;;;9.37;7.77;;;;;;;-142.65;92.49;50180.75;5115918;28;20662;-67
2022/10/11 04:57:40;;;;;;;7.93;7.13;;;;;;;-142.65;92.58;50182.72;5115262;28;20188;-67
2022/10/11 05:00:07;;;;;;;6.93;6.23;;;;;;;-142.65;92.42;50178.75;5115269;28;20281;-67
2022/10/11 05:02:34;;;;;;;6.63;6.13;;;;;;;-142.65;92.06;50178.75;5115158;28;20183;-67
2022/10/11 05:05:00;;;;;;;6.50;6.30;;;;;;;-142.65;92.00;50182.72;5115273;28;20207;-67
2022/10/11 05:07:27;;;;;;;7.20;6.57;;;;;;;-142.65;92.05;50180.75;5115042;28;20226;-67
2022/10/11 05:09:53;;;;;;;7.13;6.57;;;;;;;-142.65;92.07;50182.72;5114970;28;20593;-67
2022/10/11 05:12:19;;;;;;;9.33;8.50;;;;;;;-142.65;92.14;50178.75;5114910;28;20190;-67
2022/10/11 05:14:46;;;;;;;8.20;7.60;;;;;;;-142.65;92.16;50176.75;5114819;28;20190;-67
2022/10/11 05:17:12;;;;;;;7.50;6.90;;;;;;;-142.65;92.20;50178.75;5114812;28;20185;-67
2022/10/11 05:19:38;;;;;;;7.00;6.70;;;;;;;-142.65;92.32;50178.75;5114965;28;20210;-67
2022/10/11 05:22:05;;;;;;;7.20;6.97;;;;;;;-142.65;92.32;50178.75;5115325;28;20201;-67
2022/10/11 05:24:31;;;;;;;8.70;8.20;;;;;;;-142.65;92.29;50180.75;5114560;28;20194;-67
2022/10/11 05:26:58;;;;;;;9.17;8.23;;;;;;;-142.65;92.46;50180.75;5114583;28;20184;-67
2022/10/11 05:29:28;;;;;;;8.17;7.67;;;;;;;-142.65;92.46;50180.75;5115113;28;20177;-67
2022/10/11 05:31:55;;;;;;;7.73;7.23;;;;;;;-142.65;92.55;50178.75;5114775;28;20187;-67
2022/10/11 05:34:21;;;;;;;9.20;8.57;;;;;;;-142.65;92.57;50178.75;5114594;28;20541;-67
2022/10/11 05:36:48;;;;;;;8.47;8.07;;;;;;;-142.65;92.67;50178.75;5114470;28;20558;-67
2022/10/11 05:39:14;;;;;;;8.40;7.70;;;;;;;-142.65;92.70;50170.78;5114328;28;20192;-68
2022/10/11 05:41:40;;;;;;;9.00;8.27;;;;;;;-142.65;92.70;50182.72;5114359;28;20195;-67
2022/10/11 05:44:07;;;;;;;9.47;7.77;;;;;;;-142.65;92.78;50178.75;5114388;28;20202;-67
2022/10/11 05:46:34;;;;;;;9.83;8.90;;;;;;;-142.65;92.73;50180.75;5114214;28;20205;-67
2022/10/11 05:49:00;;;;;;;9.90;9.07;;;;;;;-142.65;92.67;50180.75;5114260;28;20216;-67
2022/10/11 05:51:26;;;;;;;9.37;8.77;;;;;;;-142.65;92.74;50180.75;5114159;28;20715;-67
2022/10/11 05:53:53;;;;;;;9.90;8.73;;;;;;;-142.65;92.81;50182.72;5114438;28;20553;-67
2022/10/11 05:56:23;;;;;;;9.67;8.77;;;;;;;-142.65;92.77;50176.75;5114088;28;20180;-67
2022/10/11 05:58:50;;;;;;;14.87;9.40;;;;;;;-142.65;92.81;50178.75;5114111;28;20188;-67
2022/10/11 06:01:22;;;;;;;9.43;8.57;;;;;;;-142.65;92.88;50182.72;5113993;28;20211;-67
2022/10/11 06:03:49;;;;;;;15.73;8.47;;;;;;;-142.65;92.78;50172.78;5114284;28;20181;-67
2022/10/11 06:06:16;;;;;;;9.90;9.10;;;;;;;-142.65;92.64;50180.75;5114176;28;20215;-67
2022/10/11 06:08:43;;;;;;;11.10;8.90;;;;;;;-142.65;92.63;50180.75;5113918;28;20182;-67
2022/10/11 06:11:19;;;;;;;8.33;7.93;;;;;;;-142.65;92.51;50178.75;5095820;28;20208;-67
2022/10/11 06:13:45;;;;;;;10.37;9.57;;;;;;;-142.65;92.65;50176.75;5114183;28;20194;-67
2022/10/11 06:16:12;;;;;;;16.17;10.13;;;;;;;-142.65;92.59;50178.75;5114760;28;20527;-67
2022/10/11 06:18:39;;;;;;;7.63;7.23;;;;;;;-142.65;92.51;50182.72;5114568;28;20190;-67
2022/10/11 06:21:05;;;;;;;6.80;6.50;;;;;;;-142.65;92.45;50180.75;5113964;28;20243;-67
2022/10/11 06:23:32;;;;;;;7.07;6.80;;;;;;;-142.65;92.54;50182.72;5113527;28;20232;-67
2022/10/11 06:26:06;;;;;;;7.93;7.63;;;;;;;-142.65;92.56;50182.72;5113923;28;20207;-67
2022/10/11 06:28:36;;;;;;;11.87;8.03;;;;;;;-142.65;92.60;50182.72;5114330;28;20235;-67
2022/10/11 06:31:04;;;;;;;8.40;7.70;;;;;;;-142.65;92.56;50180.75;5113524;28;20254;-67
2022/10/11 06:33:30;;;;;;;8.97;7.83;;;;;;;-142.65;92.60;50182.72;5113935;28;20544;-67
2022/10/11 06:36:08;;;;;;;11.40;9.70;;;;;;;-142.65;92.67;50180.75;5113560;28;20202;-67
2022/10/11 06:38:35;;;;;;;13.23;10.00;;;;;;;-142.65;92.73;50170.78;5114096;28;20182;-67
2022/10/11 06:41:10;;;;;;;12.63;10.37;;;;;;;-142.65;92.72;50178.75;5113884;28;20201;-67
2022/10/11 06:43:37;;;;;;;9.10;8.60;;;;;;;-142.65;92.71;50178.75;5114109;28;20181;-67
2022/10/11 06:46:03;;;;;;;14.17;8.57;;;;;;;-142.65;92.79;50174.75;5113677;28;20211;-67
2022/10/11 06:48:30;;;;;;;9.57;8.83;;;;;;;-142.65;92.86;50182.72;5113818;28;20548;-67
2022/10/11 06:50:57;;;;;;;9.77;9.07;;;;;;;-142.65;92.94;50170.78;5113421;28;20207;-67
2022/10/11 06:53:27;;;;;;;10.60;9.60;;;;;;;-142.65;93.16;50184.72;5113495;28;20181;-67
2022/10/11 06:55:53;;;;;;;12.70;10.53;;;;;;;-142.65;93.23;50180.75;5113831;28;20172;-67
2022/10/11 06:58:19;;;;;;;9.87;8.90;;;;;;;-142.65;93.25;50180.75;5113422;28;20558;-67
2022/10/11 07:00:46;;;;;;;11.60;9.60;;;;;;;-142.65;93.40;50180.75;5095177;28;20227;-67
2022/10/11 07:03:12;;;;;;;12.03;10.50;;;;;;;-142.65;93.44;50176.75;5113619;28;20275;-67
2022/10/11 07:05:38;;;;;;;12.17;10.60;;;;;;;-142.65;93.59;50174.75;5113545;28;20208;-67
2022/10/11 07:08:05;;;;;;;15.40;11.97;;;;;;;-142.65;93.67;50182.72;5113321;28;20191;-67
2022/10/11 07:10:31;;;;;;;21.90;12.63;;;;;;;-142.65;93.85;50170.78;5113329;28;20585;-67
2022/10/11 07:12:58;;;;;;;14.93;12.53;;;;;;;-142.65;94.04;50178.75;5113391;28;20192;-67
2022/10/11 07:15:24;;;;;;;15.03;12.07;;;;;;;-142.65;94.26;50174.75;5113175;28;20192;-67
2022/10/11 07:17:50;;;;;;;14.03;11.23;;;;;;;-142.65;94.55;50176.75;5113742;28;20187;-67
2022/10/11 07:20:17;;;;;;;22.87;11.83;;;;;;;-142.65;94.73;50178.75;5113315;28;20574;-67
2022/10/11 07:22:43;;;;;;;12.27;11.03;;;;;;;-142.65;94.83;50182.72;5113176;28;20189;-67
2022/10/11 07:25:09;;;;;;;24.00;14.03;;;;;;;-142.65;94.95;50180.75;5113655;28;20193;-67
2022/10/11 07:27:36;;;;;;;16.30;13.20;;;;;;;-142.65;95.15;50170.78;5113727;28;20185;-67
2022/10/11 07:30:02;;;;;;;17.90;13.77;;;;;;;-142.65;95.20;50180.75;5113304;28;20217;-67
2022/10/11 07:32:29;;;;;;;24.43;15.20;;;;;;;-142.65;95.27;50174.75;5113327;28;20194;-67
2022/10/11 07:34:56;;;;;;;26.73;17.23;;;;;;;-142.65;95.25;50182.72;5114513;28;20218;-67
2022/10/11 07:37:22;;;;;;;23.80;16.50;;;;;;;-142.65;95.42;50178.75;5116788;28;20190;-67
2022/10/11 07:39:49;;;;;;;27.60;16.93;;;;;;;-142.65;95.51;50180.75;5116803;28;20206;-67
2022/10/11 07:42:15;;;;;;;36.43;19.50;;;;;;;-142.65;95.59;50174.75;5116688;28;20185;-67
2022/10/11 07:44:41;;;;;;;31.10;18.80;;;;;;;-142.65;95.66;50178.75;5116685;28;20189;-67
2022/10/11 07:47:08;;;;;;;30.67;20.00;;;;;;;-142.65;95.57;50180.75;5116544;28;20205;-67
2022/10/11 07:49:36;;;;;;;29.40;19.80;;;;;;;-142.65;95.78;50172.78;5116566;28;20202;-67
2022/10/11 07:52:03;;;;;;;32.43;19.43;;;;;;;-142.65;95.87;50172.78;5116545;28;20185;-67
2022/10/11 07:54:29;;;;;;;31.27;18.47;;;;;;;-142.65;95.97;50170.78;5116499;28;20189;-67
2022/10/11 07:56:56;;;;;;;29.07;17.73;;;;;;;-142.65;95.92;50170.78;5116692;28;20185;-67
2022/10/11 07:59:22;;;;;;;27.77;19.03;;;;;;;-142.65;96.00;50178.75;5116311;28;20562;-67
2022/10/11 08:01:48;;;;;;;31.70;17.87;;;;;;;;;;5116325;28;20185;-67
2022/10/11 08:04:15;;;;;;;28.83;17.67;;;;;;;-142.65;96.02;50172.78;5116342;28;20191;-67
2022/10/11 08:06:41;;;;;;;30.67;19.07;;;;;;;-142.65;96.12;50172.78;5116186;28;20249;-67
2022/10/11 08:09:08;;;;;;;33.73;20.30;;;;;;;-142.65;96.11;50180.75;5116217;28;20190;-67
2022/10/11 08:11:36;;;;;;;33.40;20.00;;;;;;;-142.65;96.09;50174.75;5116173;28;20206;-67
2022/10/11 08:14:07;;;;;;;30.50;18.77;;;;;;;-142.65;96.02;50172.78;5116124;28;20197;-67
2022/10/11 08:16:35;;;;;;;24.60;18.23;;;;;;;-142.65;95.96;50174.75;5116345;28;20180;-67
2022/10/11 08:19:02;;;;;;;29.70;16.53;;;;;;;-142.65;95.99;50178.75;5115965;28;20230;-67
2022/10/11 08:21:28;;;;;;;25.67;16.40;;;;;;;;;;5115959;28;20211;-67
2022/10/11 08:23:55;;;;;;;25.33;16.97;;;;;;;-142.65;95.92;50170.78;5115860;28;20219;-67
2022/10/11 08:26:22;;;;;;;32.93;17.87;;;;;;;-142.65;95.91;50176.75;5115779;28;20206;-67
2022/10/11 08:28:48;;;;;;;28.37;18.50;;;;;;;-142.65;95.93;50172.78;5116024;28;20189;-67
2022/10/11 08:31:15;;;;;;;41.80;24.50;;;;;;;-142.65;96.14;50174.75;5115746;28;20257;-67
2022/10/11 08:33:42;;;;;;;45.17;24.03;;;;;;;-142.65;95.58;50172.78;5115818;28;20189;-67
2022/10/11 08:36:08;;;;;;;34.30;19.80;;;;;;;-142.65;95.03;50164.81;5115676;28;20182;-67
2022/10/11 08:38:37;;;;;;;35.33;16.10;;;;;;;-142.65;94.06;50170.78;5115713;28;20219;-67
2022/10/11 08:41:23;;;;;;;35.33;15.30;;;;;;;-142.65;93.98;50174.75;5116148;28;20213;-67
2022/10/11 08:44:10;;;;;;;30.63;17.17;;;;;;;-142.65;93.01;50170.78;5115789;28;20210;-67
2022/10/11 08:46:41;;;;;;;27.83;17.37;;;;;;;-142.65;92.60;50174.75;5115392;28;20189;-67
2022/10/11 08:49:12;;;;;;;27.30;18.20;;;;;;;-142.65;92.40;50170.78;5115749;28;20189;-67
2022/10/11 08:51:44;;;;;;;26.47;17.30;;;;;;;-142.65;91.97;50168.78;5115631;28;20213;-67
2022/10/11 08:54:25;;;;;;;27.03;16.60;;;;;;;-142.65;91.71;50168.78;5116244;28;20549;-67
2022/10/11 08:56:52;;;;;;;26.30;16.07;;;;;;;-142.65;90.98;50164.81;5115901;28;20170;-67
2022/10/11 08:59:44;;;;;;;18.80;13.23;;;;;;;-142.65;90.17;50176.75;5115209;28;20567;-67
2022/10/11 09:02:33;;;;;;;15.57;11.33;;;;;;;-142.65;89.44;50168.78;5115200;28;20177;-67
2022/10/11 09:05:21;;;;;;;14.93;10.77;;;;;;;-142.65;88.32;50170.78;5115389;28;20174;-67
2022/10/11 09:08:05;;;;;;;22.97;13.13;;;;;;;-142.65;86.94;50172.78;5115337;28;20270;-67
2022/10/11 09:10:52;;;;;;;27.30;14.73;;;;;;;-142.65;86.89;50172.78;5114983;28;20201;-67
2022/10/11 09:13:30;;;;;;;24.13;13.63;;;;;;;-142.65;87.20;50178.75;5115108;28;20624;-67
2022/10/11 09:16:17;;;;;;;23.40;13.90;;;;;;;-142.65;87.41;50170.78;5114960;28;20170;-67
2022/10/11 09:19:04;;;;;;;29.23;14.20;;;;;;;;;;5115136;28;20542;-67
2022/10/11 09:22:02;;;;;;;25.20;14.87;;;;;;;-142.65;87.19;50168.78;5114343;28;20236;-67
2022/10/11 09:24:35;;;;;;;22.67;14.97;;;;;;;;;;5097275;28;20201;-67
2022/10/11 09:27:25;;;;;;;45.93;18.27;;;;;;;-142.65;84.50;50168.78;5115190;28;20201;-67
2022/10/11 09:30:15;;;;;;;29.13;16.03;;;;;;;-142.65;83.31;50174.75;5114737;28;20213;-67
2022/10/11 09:32:46;;;;;;;28.33;16.20;;;;;;;-142.65;82.82;50174.75;5114596;28;20182;-67
2022/10/11 09:35:18;;;;;;;25.40;14.00;;;;;;;-142.65;82.26;50174.75;5115012;28;20173;-67
2022/10/11 09:37:59;;;;;;;15.97;11.60;;;;;;;-142.65;82.60;50174.75;5114811;28;20549;-67
2022/10/11 09:40:42;;;;;;;19.13;11.43;;;;;;;-142.65;81.42;50178.75;5114606;28;20205;-67
2022/10/11 09:43:08;;;;;;;17.70;12.00;;;;;;;;;;5115623;28;20540;-67
2022/10/11 09:45:34;;;;;;;19.13;9.80;;;;;;;-142.65;80.73;50164.81;5114499;28;20181;-67
2022/10/11 09:48:05;;;;;;;22.07;10.83;;;;;;;-142.65;80.41;50176.75;5114592;28;20181;-67
2022/10/11 09:50:32;;;;;;;12.40;6.77;;;;;;;;;;5114470;28;20231;-67
2022/10/11 09:53:03;;;;;;;6.20;5.20;;;;;;;-142.65;79.23;50174.75;5114601;28;20635;-67
2022/10/11 09:55:39;;;;;;;13.77;5.60;;;;;;;-142.65;78.19;50170.78;5114610;28;20173;-67
2022/10/11 09:58:26;;;;;;;7.70;5.83;;;;;;;-142.65;77.19;50170.78;5113865;28;20177;-67
2022/10/11 10:01:07;;;;;;;8.03;2.53;;;;;;;-142.65;76.12;50168.78;5114355;28;20219;-67
2022/10/11 10:03:39;;;;;;;3.23;2.93;;;;;;;-142.65;74.80;50174.75;5114311;28;20173;-67
2022/10/11 10:06:08;;;;;;;4.97;1.93;;;;;;;-142.65;71.52;50164.81;5114474;28;20200;-67
2022/10/11 10:08:35;;;;;;;5.30;1.37;;;;;;;-142.65;71.62;50170.78;5114214;28;20192;-67
2022/10/11 10:11:03;;;;;;;8.63;1.37;;;;;;;;;;5113822;28;20217;-67
2022/10/11 10:13:45;;;;;;;4.57;1.63;;;;;;;-142.65;69.94;50168.78;5113974;28;20662;-67
2022/10/11 10:16:38;;;;;;;1.47;1.37;;;;;;;-142.65;70.07;50168.78;5114441;28;20284;-67
2022/10/11 10:19:22;;;;;;;3.83;1.50;;;;;;;-142.65;68.61;50174.75;5109459;28;20208;-67
2022/10/11 10:21:50;;;;;;;7.37;1.93;;;;;;;;;;5113851;28;20176;-67
2022/10/11 10:24:19;;;;;;;2.93;1.77;;;;;;;;;;5113735;28;20181;-67
2022/10/11 10:27:06;;;;;;;6.43;2.43;;;;;;;-142.65;68.55;50168.78;5113636;28;20205;-67
2022/10/11 10:29:34;;;;;;;5.40;2.53;;;;;;;-142.65;69.52;50164.81;5113627;28;20176;-68
2022/10/11 10:32:24;;;;;;;3.53;2.20;;;;;;;-142.65;69.50;50174.75;5114002;28;20181;-67
2022/10/11 10:35:11;;;;;;;9.33;3.37;;;;;;;-142.65;70.13;50170.78;5113953;28;20582;-67
2022/10/11 10:37:51;;;;;;;6.53;3.23;;;;;;;-142.65;70.87;50170.78;5113692;28;20173;-67
2022/10/11 10:40:35;;;;;;;3.87;3.73;;;;;;;-142.65;69.27;50168.78;5114219;28;20223;-67
2022/10/11 10:43:02;;;;;;;6.87;3.27;;;;;;;;;;5113893;28;20238;-67
2022/10/11 10:45:43;;;;;;;10.27;3.77;;;;;;;-142.65;69.38;50176.75;5113901;28;20185;-67
2022/10/11 10:48:25;;;;;;;7.97;3.10;;;;;;;-142.65;69.03;50170.78;5113795;28;20635;-67
2022/10/11 10:50:56;;;;;;;4.97;3.30;;;;;;;;;;5113774;28;20205;-67
2022/10/11 10:53:43;;;;;;;10.73;3.83;;;;;;;-142.65;68.47;50168.78;5113873;28;20166;-67
2022/10/11 10:56:16;;;;;;;4.27;2.27;;;;;;;-142.65;68.50;50164.81;5113789;28;20573;-67
2022/10/11 10:59:03;;;;;;;2.93;2.60;;;;;;;;;;5113738;28;20604;-66
2022/10/11 11:01:33;;;;;;;4.70;2.90;;;;;;;-142.65;68.56;50172.78;5113392;28;20209;-67
2022/10/11 11:04:05;;;;;;;6.93;2.43;;;;;;;-142.65;68.48;50168.78;5113883;28;20273;-67
2022/10/11 11:06:46;;;;;;;2.77;2.23;;;;;;;-142.65;69.00;50172.78;5113219;28;20213;-67
2022/10/11 11:09:31;;;;;;;4.30;2.60;;;;;;;-142.65;68.72;50170.78;5115980;28;20264;-67
2022/10/11 11:12:27;;;;;;;4.73;1.97;;;;;;;-142.65;69.11;50172.78;5117322;28;20174;-67
2022/10/11 11:15:10;;;;;;;3.20;2.10;;;;;;;;;;5108218;28;20211;-67
2022/10/11 11:18:17;;;;;;;2.03;1.93;;;;;;;-142.65;68.93;50170.78;5117667;28;20529;-67
2022/10/11 11:21:11;;;;;;;4.27;1.83;;;;;;;-142.65;68.43;50176.75;5117065;28;20201;-67
2022/10/11 11:23:59;;;;;;;3.83;1.90;;;;;;;-142.65;67.45;50164.81;5117063;28;20174;-67
2022/10/11 11:26:39;;;;;;;7.20;2.13;;;;;;;-142.65;67.25;50164.81;5116889;28;20197;-67
2022/10/11 11:29:27;;;;;;;6.27;1.70;;;;;;;-142.65;65.51;50170.78;5117520;28;20683;-67
2022/10/11 11:32:09;;;;;;;3.10;1.37;;;;;;;-142.65;63.89;50164.81;5117486;28;20615;-67
2022/10/11 11:35:02;;;;;;;3.07;1.30;;;;;;;-142.65;63.82;50170.78;5117215;28;20218;-67
2022/10/11 11:37:34;;;;;;;3.87;1.50;;;;;;;-142.65;64.72;50170.78;5117345;28;20182;-67
2022/10/11 11:40:20;;;;;;;2.17;1.50;;;;;;;-142.65;64.68;50168.78;5116692;28;20216;-67
2022/10/11 11:42:50;;;;;;;2.80;1.80;;;;;;;-142.65;63.50;50170.78;5116965;28;20177;-67